createdAt,value
2022-11-27T00:01:28.726Z,4.67
2022-11-27T00:03:58.810Z,5.18
2022-11-27T00:08:58.781Z,4.51
2022-11-27T00:16:29.061Z,6
2022-11-27T00:18:58.892Z,4.94
2022-11-27T00:21:28.904Z,4.39
2022-11-27T00:28:58.969Z,5.62
2022-11-27T00:31:29.064Z,4.45
2022-11-27T00:36:29.045Z,5.54
2022-11-27T00:38:59.060Z,5
2022-11-27T00:41:29.088Z,6.17
2022-11-27T00:43:59.111Z,7.5
2022-11-27T00:46:29.441Z,6.01
2022-11-27T00:51:29.201Z,5.33
2022-11-27T00:53:59.229Z,5.25
2022-11-27T00:56:29.252Z,8.07
2022-11-27T01:01:29.336Z,5.94
2022-11-27T01:03:59.307Z,5.48
2022-11-27T01:08:59.374Z,6.07
2022-11-27T01:18:59.449Z,6.65
2022-11-27T01:21:29.451Z,7.46
2022-11-27T01:23:59.473Z,8.5
2022-11-27T01:26:29.635Z,10.81
2022-11-27T01:28:59.533Z,9.08
2022-11-27T01:31:29.736Z,7.2
2022-11-27T01:41:36.995Z,6
2022-11-27T01:44:06.993Z,6.16
2022-11-27T01:46:37.073Z,6.1
2022-11-27T01:49:07.033Z,8.99
2022-11-27T01:56:37.129Z,17.89
2022-11-27T01:59:07.163Z,13.07
2022-11-27T02:01:37.241Z,10.19
2022-11-27T02:04:07.193Z,7.41
2022-11-27T02:09:07.233Z,6.51
2022-11-27T02:11:37.255Z,6.28
2022-11-27T02:16:37.345Z,6.85
2022-11-27T02:19:07.315Z,7.32
2022-11-27T02:21:37.351Z,5.02
2022-11-27T02:24:07.421Z,6.07
2022-11-27T02:29:07.420Z,6.59
2022-11-27T02:34:07.494Z,6.31
2022-11-27T02:36:37.502Z,6.26
2022-11-27T02:41:37.542Z,6.99
2022-11-27T02:44:07.549Z,5.73
2022-11-27T02:46:37.650Z,5.27
2022-11-27T02:49:07.625Z,6.42
2022-11-27T02:51:37.640Z,5.51
2022-11-27T02:54:07.661Z,5.96
2022-11-27T02:56:37.692Z,6.26
2022-11-27T02:59:07.717Z,8.04
2022-11-27T03:01:37.845Z,7.23
2022-11-27T03:04:07.768Z,5.52
2022-11-27T03:09:07.810Z,4.46
2022-11-27T03:11:37.807Z,4.7
2022-11-27T03:14:07.847Z,5.01
2022-11-27T03:16:37.871Z,5.45
2022-11-27T03:19:07.891Z,6.96
2022-11-27T03:21:37.920Z,9.38
2022-11-27T03:24:07.946Z,9.4
2022-11-27T03:26:37.984Z,7.51
2022-11-27T03:29:07.984Z,5.67
2022-11-27T03:31:38.167Z,8.57
2022-11-27T03:34:08.018Z,7.02
2022-11-27T03:36:38.041Z,7.59
2022-11-27T03:39:08.088Z,7.29
2022-11-27T03:46:38.177Z,6.29
2022-11-27T03:49:08.189Z,5.66
2022-11-27T03:54:08.248Z,5.09
2022-11-27T03:56:38.240Z,3.91
2022-11-27T03:59:08.327Z,5.98
2022-11-27T04:01:38.445Z,6.08
2022-11-27T04:09:08.374Z,5.97
2022-11-27T04:11:38.388Z,4.63
2022-11-27T04:14:08.403Z,4.29
2022-11-27T04:24:08.504Z,5.15
2022-11-27T04:26:38.518Z,4.15
2022-11-27T04:29:08.553Z,4.55
2022-11-27T04:31:38.617Z,4.53
2022-11-27T04:34:08.614Z,4.14
2022-11-27T04:36:39.649Z,5.74
2022-11-27T04:41:38.665Z,4.76
2022-11-27T04:44:08.698Z,3.48
2022-11-27T04:46:38.860Z,4.27
2022-11-27T04:49:08.730Z,5.29
2022-11-27T04:54:08.781Z,5.36
2022-11-27T04:56:38.796Z,5.64
2022-11-27T04:59:08.829Z,4.14
2022-11-27T05:01:38.876Z,3.92
2022-11-27T05:06:38.896Z,5.05
2022-11-27T05:09:08.912Z,6.17
2022-11-27T05:11:38.955Z,9.92
2022-11-27T05:14:08.978Z,6.35
2022-11-27T05:19:08.999Z,4.06
2022-11-27T05:21:39.053Z,3.78
2022-11-27T05:24:09.045Z,5.4
2022-11-27T05:26:39.095Z,4.46
2022-11-27T05:29:09.113Z,3.58
2022-11-27T05:31:39.233Z,3.65
2022-11-27T05:34:09.148Z,3.82
2022-11-27T05:41:39.228Z,4.35
2022-11-27T05:44:09.257Z,4.23
2022-11-27T05:46:39.321Z,4.53
2022-11-27T05:49:09.282Z,4.31
2022-11-27T05:51:39.337Z,6.67
2022-11-27T05:54:09.346Z,5.74
2022-11-27T05:56:39.375Z,4.02
2022-11-27T05:59:09.400Z,4.96
2022-11-27T06:01:39.512Z,4.52
2022-11-27T06:04:09.450Z,3.85
2022-11-27T06:09:12.771Z,4.25
2022-11-27T06:14:09.553Z,3.22
2022-11-27T06:19:09.588Z,7.23
2022-11-27T06:21:39.614Z,6.8
2022-11-27T06:31:39.774Z,4.78
2022-11-27T06:34:09.734Z,4.1
2022-11-27T06:36:39.747Z,3.92
2022-11-27T06:41:39.778Z,4.76
2022-11-27T06:44:09.827Z,6.54
2022-11-27T06:49:09.890Z,5.08
2022-11-27T06:51:39.894Z,4.56
2022-11-27T06:54:09.906Z,4.09
2022-11-27T06:59:09.956Z,3.87
2022-11-27T07:01:40.083Z,3.3
2022-11-27T07:04:09.996Z,3.26
2022-11-27T07:06:40.074Z,3.32
2022-11-27T07:09:10.060Z,4.15
2022-11-27T07:11:40.088Z,3.9
2022-11-27T07:14:10.116Z,3.83
2022-11-27T07:21:40.188Z,4.37
2022-11-27T07:24:10.212Z,4.82
2022-11-27T07:29:10.260Z,6.92
2022-11-27T07:34:15.965Z,5.59
2022-11-27T07:36:40.321Z,5.41
2022-11-27T07:39:10.313Z,4.83
2022-11-27T07:44:10.383Z,5.83
2022-11-27T07:46:40.411Z,5.48
2022-11-27T07:49:10.609Z,5.67
2022-11-27T07:51:40.428Z,6.4
2022-11-27T07:54:10.474Z,8.04
2022-11-27T07:56:40.523Z,7.79
2022-11-27T07:59:10.540Z,6.33
2022-11-27T08:04:10.626Z,7.44
2022-11-27T08:06:40.599Z,6.71
2022-11-27T08:09:10.629Z,5.94
2022-11-27T08:11:40.647Z,5.45
2022-11-27T08:14:10.658Z,7.67
2022-11-27T08:16:40.787Z,9.81
2022-11-27T08:19:10.707Z,7.1
2022-11-27T08:21:40.739Z,11.76
2022-11-27T08:26:40.778Z,10.19
2022-11-27T08:29:10.780Z,8.24
2022-11-27T08:31:40.885Z,8.86
2022-11-27T08:34:10.879Z,9.31
2022-11-27T08:36:40.875Z,8.41
2022-11-27T08:39:10.892Z,10
2022-11-27T08:41:40.931Z,6.32
2022-11-27T08:44:10.930Z,8.46
2022-11-27T08:46:40.968Z,9.2
2022-11-27T08:51:40.994Z,7.86
2022-11-27T08:54:11.017Z,6.29
2022-11-27T08:56:41.074Z,9.94
2022-11-27T08:59:11.090Z,9.21
2022-11-27T09:01:41.122Z,8.93
2022-11-27T09:06:41.156Z,8.56
2022-11-27T09:09:11.176Z,7.64
2022-11-27T09:11:41.204Z,6.65
2022-11-27T09:19:11.266Z,8.68
2022-11-27T09:24:11.323Z,8.83
2022-11-27T09:31:41.485Z,8.31
2022-11-27T09:34:11.416Z,8.81
2022-11-27T09:39:11.466Z,7.75
2022-11-27T09:41:41.458Z,7.22
2022-11-27T09:44:11.489Z,8.05
2022-11-27T09:46:41.524Z,9.24
2022-11-27T09:49:11.554Z,8.73
2022-11-27T09:56:41.599Z,9.82
2022-11-27T10:04:11.681Z,10.1
2022-11-27T10:06:41.746Z,10.37
2022-11-27T10:09:11.736Z,8.33
2022-11-27T10:11:41.750Z,8.79
2022-11-27T10:16:44.770Z,10.1
2022-11-27T10:19:11.838Z,12.23
2022-11-27T10:24:11.865Z,9.63
2022-11-27T10:26:41.896Z,8.67
2022-11-27T10:29:11.917Z,6.64
2022-11-27T10:39:12.026Z,6.89
2022-11-27T10:41:49.259Z,6.23
2022-11-27T10:49:12.116Z,10.84
2022-11-27T10:51:42.138Z,9.51
2022-11-27T10:56:42.185Z,7.79
2022-11-27T11:04:24.691Z,9.82
2022-11-27T11:09:12.331Z,8.42
2022-11-27T11:14:12.336Z,7.97
2022-11-27T11:19:12.398Z,6.69
2022-11-27T11:24:12.447Z,8.89
2022-11-27T11:26:42.470Z,9.25
2022-11-27T11:29:12.515Z,8.86
2022-11-27T11:31:42.585Z,7.86
2022-11-27T11:34:12.536Z,8.21
2022-11-27T11:36:42.562Z,7.63
2022-11-27T11:39:12.588Z,6.68
2022-11-27T11:41:42.591Z,6.64
2022-11-27T11:44:12.641Z,6.52
2022-11-27T11:46:42.668Z,6.71
2022-11-27T11:51:42.690Z,7.93
2022-11-27T11:54:12.758Z,7.04
2022-11-27T11:56:42.729Z,7.03
2022-11-27T11:59:12.750Z,7.39
2022-11-27T12:01:42.786Z,6.37
2022-11-27T12:04:12.871Z,8.15
2022-11-27T12:06:42.842Z,6.18
2022-11-27T12:09:12.847Z,7.52
2022-11-27T12:11:42.880Z,7.68
2022-11-27T12:14:12.894Z,7.19
2022-11-27T12:16:42.997Z,6.87
2022-11-27T12:21:42.967Z,7.7
2022-11-27T12:24:13.000Z,6.69
2022-11-27T12:31:43.164Z,5.46
2022-11-27T12:34:13.106Z,5.92
2022-11-27T12:36:43.101Z,6.36
2022-11-27T12:39:13.139Z,6.64
2022-11-27T12:41:43.168Z,8.73
2022-11-27T12:44:13.194Z,8.33
2022-11-27T12:46:43.219Z,10.36
2022-11-27T12:51:43.246Z,8.86
2022-11-27T12:54:13.315Z,8.6
2022-11-27T12:56:43.324Z,7.26
2022-11-27T12:59:13.331Z,6.67
2022-11-27T13:01:43.398Z,6.03
2022-11-27T13:04:13.359Z,6.93
2022-11-27T13:06:43.428Z,13.57
2022-11-27T13:11:43.454Z,9.41
2022-11-27T13:14:13.456Z,8.64
2022-11-27T13:16:50.588Z,6.95
2022-11-27T13:19:13.529Z,6.4
2022-11-27T13:21:43.556Z,9.44
2022-11-27T13:24:13.564Z,8.02
2022-11-27T13:26:43.578Z,7.81
2022-11-27T13:29:13.623Z,7.22
2022-11-27T13:31:43.678Z,6.43
2022-11-27T13:34:13.680Z,6.05
2022-11-27T13:39:13.700Z,8.95
2022-11-27T13:41:43.716Z,7.55
2022-11-27T13:44:13.763Z,6.18
2022-11-27T13:46:43.777Z,7.7
2022-11-27T13:49:13.804Z,6.72
2022-11-27T13:51:43.832Z,6.83
2022-11-27T13:54:13.830Z,6.05
2022-11-27T13:56:43.876Z,7.31
2022-11-27T13:59:13.894Z,5.69
2022-11-27T14:01:43.913Z,5.95
2022-11-27T14:04:13.952Z,5.88
2022-11-27T14:06:43.969Z,5.14
2022-11-27T14:09:13.973Z,5.35
2022-11-27T14:11:44.000Z,5.06
2022-11-27T14:14:14.033Z,6.22
2022-11-27T14:16:44.113Z,5.06
2022-11-27T14:19:14.072Z,4.39
2022-11-27T14:21:44.117Z,4.36
2022-11-27T14:24:14.139Z,5.82
2022-11-27T14:26:44.148Z,6.07
2022-11-27T14:29:14.254Z,5.47
2022-11-27T14:31:44.280Z,5.29
2022-11-27T14:36:44.247Z,6.17
2022-11-27T14:41:44.320Z,5.02
2022-11-27T14:44:14.313Z,4.91
2022-11-27T14:46:44.415Z,4.94
2022-11-27T14:49:14.350Z,5.5
2022-11-27T14:54:14.419Z,7.48
2022-11-27T14:56:44.429Z,8.44
2022-11-27T14:59:14.469Z,7.77
2022-11-27T15:01:44.525Z,5.98
2022-11-27T15:04:21.528Z,6.37
2022-11-27T15:06:44.523Z,6.77
2022-11-27T15:09:31.394Z,6.39
2022-11-27T15:11:55.862Z,7.74
2022-11-27T15:14:14.594Z,6
2022-11-27T15:16:44.675Z,5.29
2022-11-27T15:19:14.639Z,5.45
2022-11-27T15:21:44.663Z,5.58
2022-11-27T15:24:14.690Z,5.74
2022-11-27T15:26:44.716Z,5.4
2022-11-27T15:29:14.736Z,5.52
2022-11-27T15:31:44.789Z,5.88
2022-11-27T15:34:14.784Z,7.14
2022-11-27T15:36:44.817Z,5.69
2022-11-27T15:39:14.823Z,7.06
2022-11-27T15:41:44.839Z,6.04
2022-11-27T15:44:14.898Z,6.4
2022-11-27T15:46:44.912Z,6.5
2022-11-27T15:51:44.934Z,6.06
2022-11-27T15:54:14.956Z,6.36
2022-11-27T15:56:44.994Z,7.7
2022-11-27T15:59:15.012Z,5.84
2022-11-27T16:01:45.134Z,5.28
2022-11-27T16:06:45.081Z,7.75
2022-11-27T16:09:15.114Z,6.79
2022-11-27T16:11:45.143Z,7.78
2022-11-27T16:14:15.172Z,8.24
2022-11-27T16:16:45.297Z,6.94
2022-11-27T16:19:15.208Z,8.99
2022-11-27T16:21:45.226Z,8.07
2022-11-27T16:24:15.248Z,6.23
2022-11-27T16:26:45.279Z,5.96
2022-11-27T16:29:15.321Z,8.25
2022-11-27T16:31:45.464Z,8.36
2022-11-27T16:34:15.327Z,8.15
2022-11-27T16:39:15.415Z,9.18
2022-11-27T16:41:45.417Z,10.59
2022-11-27T16:46:45.446Z,7.12
2022-11-27T16:49:15.484Z,7.55
2022-11-27T16:51:45.517Z,8.27
2022-11-27T16:54:15.528Z,7.48
2022-11-27T16:56:45.535Z,7.69
2022-11-27T16:59:15.597Z,7.31
2022-11-27T17:04:15.633Z,8.19
2022-11-27T17:06:45.658Z,7.6
2022-11-27T17:11:45.693Z,9.6
2022-11-27T17:16:45.850Z,6.59
2022-11-27T17:19:15.775Z,9.31
2022-11-27T17:21:45.804Z,9.53
2022-11-27T17:24:16.212Z,9.98
2022-11-27T17:26:45.858Z,8.08
2022-11-27T17:29:15.861Z,6.87
2022-11-27T17:34:15.894Z,7.67
2022-11-27T17:39:15.961Z,7.28
2022-11-27T17:41:45.997Z,8.65
2022-11-27T17:44:16.002Z,8.22
2022-11-27T17:46:46.016Z,7.79
2022-11-27T17:49:16.052Z,7.26
2022-11-27T17:51:46.068Z,7.19
2022-11-27T17:54:16.192Z,7.31
2022-11-27T17:56:46.121Z,7.71
2022-11-27T17:59:16.147Z,7.34
2022-11-27T18:01:46.228Z,7.02
2022-11-27T18:04:16.188Z,6.45
2022-11-27T18:11:46.256Z,6.56
2022-11-27T18:14:16.280Z,10.53
2022-11-27T18:16:46.416Z,8.85
2022-11-27T18:19:16.354Z,7.54
2022-11-27T18:21:46.356Z,6.13
2022-11-27T18:24:24.944Z,6.57
2022-11-27T18:27:07.364Z,6.86
2022-11-27T18:29:16.428Z,7.27
2022-11-27T18:31:46.466Z,9.32
2022-11-27T18:34:16.465Z,8.61
2022-11-27T18:36:46.495Z,9
2022-11-27T18:39:16.550Z,6.31
2022-11-27T18:41:46.538Z,5.81
2022-11-27T18:44:16.587Z,6.59
2022-11-27T18:46:46.582Z,6.27
2022-11-27T18:49:16.623Z,9.28
2022-11-27T18:51:46.615Z,7.4
2022-11-27T18:54:16.666Z,6.66
2022-11-27T18:56:46.685Z,6.71
2022-11-27T18:59:16.703Z,6.62
2022-11-27T19:04:16.739Z,5.95
2022-11-27T19:06:46.804Z,5.66
2022-11-27T19:09:16.791Z,5.46
2022-11-27T19:11:46.833Z,5.31
2022-11-27T19:14:16.848Z,5.05
2022-11-27T19:16:46.998Z,5.16
2022-11-27T19:20:04.381Z,4.51
2022-11-27T19:21:46.923Z,5.82
2022-11-27T19:24:16.937Z,5.77
2022-11-27T19:26:46.965Z,4.83
2022-11-27T19:29:16.992Z,7.71
2022-11-27T19:31:47.036Z,6.85
2022-11-27T19:39:17.057Z,5.17
2022-11-27T19:41:47.091Z,4.8
2022-11-27T19:44:17.129Z,6.09
2022-11-27T19:46:47.156Z,5.7
2022-11-27T19:49:17.181Z,6.03
2022-11-27T19:51:47.187Z,6.1
2022-11-27T19:54:17.219Z,5.73
2022-11-27T19:56:47.223Z,7.72
2022-11-27T19:59:21.391Z,8.18
2022-11-27T20:01:47.328Z,8.07
2022-11-27T20:04:17.304Z,5.75
2022-11-27T20:06:47.335Z,6.08
2022-11-27T20:09:17.350Z,6.23
2022-11-27T20:14:17.409Z,6.84
2022-11-27T20:16:47.535Z,6.29
2022-11-27T20:19:17.455Z,5.54
2022-11-27T20:21:47.481Z,5.48
2022-11-27T20:24:17.511Z,7.46
2022-11-27T20:26:47.609Z,7.03
2022-11-27T20:29:17.560Z,10.11
2022-11-27T20:31:47.573Z,8.64
2022-11-27T20:34:17.585Z,8.13
2022-11-27T20:36:47.612Z,6.82
2022-11-27T20:41:47.681Z,7.78
2022-11-27T20:44:17.668Z,6.36
2022-11-27T20:46:47.709Z,6.13
2022-11-27T20:49:17.737Z,6.05
2022-11-27T20:51:47.761Z,5.69
2022-11-27T20:56:47.807Z,9.92
2022-11-27T20:59:17.825Z,8.03
2022-11-27T21:01:47.956Z,8.9
2022-11-27T21:04:17.885Z,9.27
2022-11-27T21:06:47.897Z,7.62
2022-11-27T21:09:17.924Z,8.14
2022-11-27T21:11:47.952Z,6.71
2022-11-27T21:14:17.966Z,6.52
2022-11-27T21:16:48.108Z,6.51
2022-11-27T21:19:18.030Z,6.63
2022-11-27T21:21:48.035Z,6.07
2022-11-27T21:24:18.079Z,5.1
2022-11-27T21:26:48.267Z,6.65
2022-11-27T21:29:18.118Z,9.81
2022-11-27T21:31:48.172Z,7.72
2022-11-27T21:34:18.151Z,7.99
2022-11-27T21:39:18.213Z,6.4
2022-11-27T21:41:48.237Z,6.67
2022-11-27T21:44:18.258Z,6.35
2022-11-27T21:49:18.290Z,5.56
2022-11-27T21:51:48.325Z,5.81
2022-11-27T21:54:18.349Z,6.2
2022-11-27T21:56:48.387Z,6.22
2022-11-27T21:59:18.396Z,7.81
2022-11-27T22:01:48.519Z,7.29
2022-11-27T22:04:18.431Z,9.01
2022-11-27T22:06:48.476Z,9.29
2022-11-27T22:09:18.505Z,8.48
2022-11-27T22:11:48.520Z,8.42
2022-11-27T22:14:18.547Z,7.47
2022-11-27T22:16:48.628Z,5.86
2022-11-27T22:19:18.593Z,6.1
2022-11-27T22:24:19.861Z,5.11
2022-11-27T22:26:48.745Z,5.62
2022-11-27T22:29:18.667Z,5.36
2022-11-27T22:34:18.729Z,5.5
2022-11-27T22:36:48.741Z,6.26
2022-11-27T22:39:18.762Z,7.09
2022-11-27T22:44:18.822Z,4.6
2022-11-27T22:46:48.855Z,6.44
2022-11-27T22:49:18.881Z,9.49
2022-11-27T22:51:48.874Z,7.75
2022-11-27T22:56:48.931Z,7.51
2022-11-27T22:59:32.710Z,6.37
2022-11-27T23:04:18.989Z,7.02
2022-11-27T23:09:19.070Z,7.74
2022-11-27T23:11:49.073Z,6.84
2022-11-27T23:14:19.109Z,4.91
2022-11-27T23:21:49.178Z,7.1
2022-11-27T23:24:19.212Z,6.85
2022-11-27T23:26:49.215Z,5
2022-11-27T23:31:49.375Z,8.25
2022-11-27T23:34:19.296Z,9.2
2022-11-27T23:36:49.333Z,8.92
2022-11-27T23:39:19.385Z,8.82
2022-11-27T23:41:49.363Z,8.45
2022-11-27T23:44:19.385Z,7.51
2022-11-27T23:46:49.422Z,8.46
2022-11-27T23:49:19.454Z,6.98
2022-11-27T23:51:49.452Z,5.36
2022-11-27T23:56:49.498Z,5.6
2022-11-27T23:59:19.522Z,6.32
